Terminal Aerodrome Forecast
Issued by NWS

Home | Current Version | Previous Version | Text Only | Print | Product List | Glossary On
Versions: 1 2 3 4 5 6 7 8 9 10 11 12 13 14 15 16 17 18
000
FTUS43 KDLH 281500 AAC
TAFHIB
TAF AMD
KHIB 281507Z 2815/2912 33011KT P6SM SCT013
      TEMPO 2815/2816 P6SM -SN BKN011
     FM281700 33011G16KT P6SM SCT018
     FM282100 33010KT P6SM SKC=

USA.gov is the U.S. government's official web portal to all federal, state and local government web resources and services.